createdAt,value
2023-05-14T00:01:44.580Z,19.26
2023-05-14T00:04:11.772Z,19.14
2023-05-14T00:06:39.616Z,19.20
2023-05-14T00:09:09.451Z,19.26
2023-05-14T00:11:38.945Z,19.31
2023-05-14T00:14:06.398Z,19.25
2023-05-14T00:16:45.078Z,19.02
2023-05-14T00:19:12.380Z,19.18
2023-05-14T00:21:40.420Z,19.21
2023-05-14T00:24:09.323Z,19.19
2023-05-14T00:26:38.047Z,19.10
2023-05-14T00:29:05.452Z,19.12
2023-05-14T00:31:33.023Z,19.13
2023-05-14T00:34:00.764Z,19.02
2023-05-14T00:36:29.329Z,18.95
2023-05-14T00:38:57.606Z,18.78
2023-05-14T00:41:26.555Z,18.85
2023-05-14T00:43:56.219Z,18.89
2023-05-14T00:46:26.355Z,18.93
2023-05-14T00:48:54.054Z,18.67
2023-05-14T00:51:21.457Z,18.67
2023-05-14T00:53:52.799Z,18.66
2023-05-14T00:56:20.771Z,18.59
2023-05-14T00:58:49.238Z,18.63
2023-05-14T01:01:19.290Z,18.51
2023-05-14T01:03:47.198Z,18.58
2023-05-14T01:06:26.835Z,18.67
2023-05-14T01:09:03.692Z,18.67
2023-05-14T01:11:37.090Z,18.62
2023-05-14T01:14:14.335Z,18.50
2023-05-14T01:16:46.322Z,18.46
2023-05-14T01:19:27.413Z,18.43
2023-05-14T01:21:56.936Z,18.48
2023-05-14T01:24:24.565Z,18.53
2023-05-14T01:27:07.276Z,18.48
2023-05-14T01:29:41.050Z,18.63
2023-05-14T01:32:09.793Z,18.49
2023-05-14T01:34:39.950Z,18.38
2023-05-14T01:37:12.093Z,18.19
2023-05-14T01:39:42.053Z,18.13
2023-05-14T01:42:12.860Z,18.24
2023-05-14T01:44:41.211Z,18.28
2023-05-14T01:47:11.702Z,18.34
2023-05-14T01:49:39.136Z,18.24
2023-05-14T01:52:09.168Z,18.07
2023-05-14T01:54:37.809Z,18.12
2023-05-14T01:57:07.942Z,18.00
2023-05-14T01:59:35.569Z,18.04
2023-05-14T02:02:05.085Z,18.14
2023-05-14T02:04:32.220Z,17.93
2023-05-14T02:07:00.357Z,18.10
2023-05-14T02:09:29.294Z,18.10
2023-05-14T02:11:58.525Z,18.02
2023-05-14T02:14:26.138Z,17.97
2023-05-14T02:16:53.379Z,17.88
2023-05-14T02:19:20.933Z,18.14
2023-05-14T02:21:49.022Z,18.12
2023-05-14T02:24:15.979Z,18.03
2023-05-14T02:26:47.022Z,18.07
2023-05-14T02:29:14.300Z,18.09
2023-05-14T02:31:49.612Z,18.11
2023-05-14T02:34:17.561Z,18.14
2023-05-14T02:36:44.853Z,18.24
2023-05-14T02:39:12.388Z,18.20
2023-05-14T02:41:39.765Z,18.18
2023-05-14T02:44:10.110Z,18.19
2023-05-14T02:46:37.280Z,18.26
2023-05-14T02:49:04.717Z,18.24
2023-05-14T02:51:32.846Z,18.13
2023-05-14T02:54:00.653Z,18.18
2023-05-14T02:56:28.586Z,18.22
2023-05-14T02:58:55.950Z,18.15
2023-05-14T03:01:26.361Z,18.27
2023-05-14T03:03:54.356Z,18.31
2023-05-14T03:06:22.720Z,18.27
2023-05-14T03:08:49.982Z,18.32
2023-05-14T03:11:17.638Z,18.47
2023-05-14T03:13:44.880Z,18.48
2023-05-14T03:16:12.204Z,18.44
2023-05-14T03:18:41.776Z,18.42
2023-05-14T03:21:09.093Z,18.42
2023-05-14T03:23:36.609Z,18.44
2023-05-14T03:26:04.771Z,18.37
2023-05-14T03:28:32.581Z,18.25
2023-05-14T03:31:00.002Z,18.18
2023-05-14T03:33:29.957Z,18.37
2023-05-14T03:36:08.692Z,18.40
2023-05-14T03:38:36.639Z,18.46
2023-05-14T03:41:03.993Z,18.33
2023-05-14T03:43:31.595Z,18.29
2023-05-14T03:45:59.091Z,18.34
2023-05-14T03:48:26.346Z,18.37
2023-05-14T03:50:54.546Z,18.31
2023-05-14T03:53:23.491Z,18.19
2023-05-14T03:55:52.089Z,18.23
2023-05-14T03:58:22.327Z,18.29
2023-05-14T04:00:49.993Z,18.28
2023-05-14T04:03:17.672Z,18.19
2023-05-14T04:05:46.208Z,18.15
2023-05-14T04:08:14.215Z,18.19
2023-05-14T04:10:42.671Z,18.32
2023-05-14T04:13:09.762Z,18.18
2023-05-14T04:15:37.190Z,18.08
2023-05-14T04:18:04.746Z,18.19
2023-05-14T04:20:32.144Z,18.12
2023-05-14T04:23:00.477Z,18.26
2023-05-14T04:25:27.775Z,18.28
2023-05-14T04:27:57.780Z,18.20
2023-05-14T04:30:25.782Z,18.23
2023-05-14T04:32:53.603Z,18.28
2023-05-14T04:35:24.830Z,18.25
2023-05-14T04:37:54.534Z,18.36
2023-05-14T04:40:22.883Z,18.47
2023-05-14T04:42:54.014Z,18.34
2023-05-14T04:45:23.765Z,18.47
2023-05-14T04:47:51.617Z,18.50
2023-05-14T04:50:23.980Z,18.54
2023-05-14T04:52:51.719Z,18.37
2023-05-14T04:55:19.007Z,18.48
2023-05-14T04:57:46.301Z,18.49
2023-05-14T05:00:15.120Z,18.71
2023-05-14T05:02:44.423Z,18.87
2023-05-14T05:05:13.093Z,18.90
2023-05-14T05:07:40.747Z,18.97
2023-05-14T05:10:09.262Z,19.02
2023-05-14T05:12:36.704Z,19.20
2023-05-14T05:15:04.580Z,19.40
2023-05-14T05:17:31.849Z,19.57
2023-05-14T05:20:00.756Z,19.60
2023-05-14T05:22:30.559Z,19.57
2023-05-14T05:24:57.970Z,19.72
2023-05-14T05:27:25.800Z,19.84
2023-05-14T05:29:54.937Z,20.14
2023-05-14T05:32:22.671Z,20.07
2023-05-14T05:34:50.754Z,20.28
2023-05-14T05:37:20.609Z,20.38
2023-05-14T05:39:48.233Z,20.67
2023-05-14T05:42:15.832Z,21.07
2023-05-14T05:44:43.346Z,21.24
2023-05-14T05:47:10.873Z,21.52
2023-05-14T05:49:42.278Z,21.61
2023-05-14T05:52:11.744Z,22.07
2023-05-14T05:54:40.863Z,22.25
2023-05-14T05:57:11.147Z,22.39
2023-05-14T05:59:38.326Z,22.27
2023-05-14T06:02:05.963Z,22.29
2023-05-14T06:04:33.418Z,22.48
2023-05-14T06:07:01.032Z,22.54
2023-05-14T06:09:28.862Z,22.86
2023-05-14T06:12:00.965Z,23.01
2023-05-14T06:14:28.558Z,23.09
2023-05-14T06:16:56.386Z,23.29
2023-05-14T06:19:24.947Z,23.27
2023-05-14T06:21:53.633Z,23.38
2023-05-14T06:24:21.526Z,23.40
2023-05-14T06:26:49.434Z,23.60
2023-05-14T06:29:20.040Z,24.13
2023-05-14T06:31:47.919Z,24.30
2023-05-14T06:34:15.163Z,24.30
2023-05-14T06:36:42.623Z,24.44
2023-05-14T06:39:09.930Z,24.66
2023-05-14T06:41:39.069Z,25.20
2023-05-14T06:44:06.231Z,25.71
2023-05-14T06:46:35.867Z,25.93
2023-05-14T06:49:04.197Z,25.91
2023-05-14T06:51:32.625Z,25.95
2023-05-14T06:54:00.481Z,25.58
2023-05-14T06:56:27.702Z,24.98
2023-05-14T06:58:54.848Z,24.40
2023-05-14T07:01:23.943Z,23.99
2023-05-14T07:03:53.478Z,24.35
2023-05-14T07:06:21.792Z,23.97
2023-05-14T07:08:49.283Z,24.08
2023-05-14T07:11:17.601Z,23.68
2023-05-14T07:13:44.764Z,23.59
2023-05-14T07:16:12.140Z,23.12
2023-05-14T07:18:39.579Z,22.91
2023-05-14T07:21:11.946Z,23.22
2023-05-14T07:23:39.367Z,23.14
2023-05-14T07:26:08.603Z,23.29
2023-05-14T07:28:38.402Z,23.63
2023-05-14T07:31:06.267Z,23.91
2023-05-14T07:33:33.692Z,23.79
2023-05-14T07:36:01.136Z,23.61
2023-05-14T07:38:30.414Z,23.52
2023-05-14T07:40:57.609Z,23.98
2023-05-14T07:43:25.082Z,24.25
2023-05-14T07:45:53.183Z,24.85
2023-05-14T07:48:20.600Z,24.67
2023-05-14T07:50:51.421Z,24.32
2023-05-14T07:53:18.705Z,24.83
2023-05-14T07:55:49.890Z,25.19
2023-05-14T07:58:17.227Z,25.11
2023-05-14T08:00:44.484Z,25.43
2023-05-14T08:03:12.221Z,25.07
2023-05-14T08:05:40.398Z,24.95
2023-05-14T08:08:07.887Z,24.64
2023-05-14T08:10:35.572Z,24.98
2023-05-14T08:13:05.130Z,25.38
2023-05-14T08:15:32.326Z,25.96
2023-05-14T08:17:59.842Z,26.53
2023-05-14T08:20:27.577Z,27.09
2023-05-14T08:22:54.914Z,27.24
2023-05-14T08:25:22.737Z,26.53
2023-05-14T08:27:50.273Z,26.24
2023-05-14T08:30:19.846Z,25.95
2023-05-14T08:32:47.418Z,26.34
2023-05-14T08:35:15.067Z,26.47
2023-05-14T08:37:41.908Z,26.33
2023-05-14T08:40:10.994Z,26.64
2023-05-14T08:42:39.364Z,27.03
2023-05-14T08:45:12.721Z,26.79
2023-05-14T08:47:42.266Z,26.79
2023-05-14T08:50:09.457Z,26.89
2023-05-14T08:52:36.848Z,27.48
2023-05-14T08:55:06.252Z,28.23
2023-05-14T08:57:34.514Z,28.73
2023-05-14T09:00:02.906Z,29.04
2023-05-14T09:02:32.217Z,28.35
2023-05-14T09:05:02.992Z,27.65
2023-05-14T09:07:30.684Z,27.75
2023-05-14T09:09:58.077Z,28.06
2023-05-14T09:12:25.884Z,28.32
2023-05-14T09:14:53.175Z,28.44
2023-05-14T09:17:20.890Z,28.75
2023-05-14T09:19:48.764Z,29.00
2023-05-14T09:22:18.244Z,28.92
2023-05-14T09:24:45.966Z,28.64
2023-05-14T09:27:19.308Z,27.40
2023-05-14T09:29:47.794Z,26.85
2023-05-14T09:32:14.906Z,26.39
2023-05-14T09:34:42.412Z,26.15
2023-05-14T09:37:10.165Z,26.15
2023-05-14T09:39:39.825Z,25.89
2023-05-14T09:42:07.374Z,25.54
2023-05-14T09:44:34.682Z,25.41
2023-05-14T09:47:02.058Z,25.79
2023-05-14T09:49:33.742Z,26.26
2023-05-14T09:52:02.243Z,26.55
2023-05-14T09:54:30.278Z,26.23
2023-05-14T09:56:59.335Z,26.34
2023-05-14T09:59:26.599Z,26.86
2023-05-14T10:01:54.542Z,26.65
2023-05-14T10:04:23.801Z,26.27
2023-05-14T10:06:53.540Z,26.11
2023-05-14T10:09:23.202Z,26.17
2023-05-14T10:11:54.565Z,26.01
2023-05-14T10:14:27.336Z,26.16
2023-05-14T10:16:59.071Z,26.45
2023-05-14T10:19:26.768Z,26.34
2023-05-14T10:21:57.509Z,26.81
2023-05-14T10:24:26.005Z,26.95
2023-05-14T10:26:54.427Z,27.24
2023-05-14T10:29:33.462Z,27.58
2023-05-14T10:32:05.496Z,27.99
2023-05-14T10:34:34.862Z,27.60
2023-05-14T10:37:02.872Z,27.45
2023-05-14T10:39:45.480Z,27.50
2023-05-14T10:42:14.196Z,28.28
2023-05-14T10:44:58.406Z,29.11
2023-05-14T10:47:26.844Z,29.57
2023-05-14T10:49:56.581Z,29.81
2023-05-14T10:52:24.678Z,30.00
2023-05-14T10:54:53.473Z,29.37
2023-05-14T10:57:22.393Z,29.20
2023-05-14T10:59:51.010Z,28.17
2023-05-14T11:02:24.915Z,28.33
2023-05-14T11:05:01.330Z,27.69
2023-05-14T11:07:31.368Z,27.53
2023-05-14T11:10:04.108Z,27.66
2023-05-14T11:12:31.971Z,27.70
2023-05-14T11:15:00.513Z,26.85
2023-05-14T11:17:31.037Z,26.68
2023-05-14T11:19:59.299Z,27.18
2023-05-14T11:22:26.696Z,27.51
2023-05-14T11:24:55.027Z,27.97
2023-05-14T11:27:22.626Z,28.20
2023-05-14T11:29:50.485Z,27.48
2023-05-14T11:32:18.945Z,27.49
2023-05-14T11:34:48.004Z,27.64
2023-05-14T11:37:16.593Z,27.61
2023-05-14T11:39:48.624Z,27.57
2023-05-14T11:42:16.054Z,27.60
2023-05-14T11:44:43.412Z,27.30
2023-05-14T11:47:14.417Z,27.11
2023-05-14T11:49:41.864Z,26.92
2023-05-14T11:52:12.006Z,27.05
2023-05-14T11:54:39.342Z,26.81
2023-05-14T11:57:09.923Z,27.34
2023-05-14T11:59:38.357Z,28.55
2023-05-14T12:02:06.333Z,29.34
2023-05-14T12:04:33.802Z,29.84
2023-05-14T12:07:07.612Z,30.25
2023-05-14T12:09:39.559Z,30.75
2023-05-14T12:12:10.770Z,30.85
2023-05-14T12:14:38.884Z,30.06
2023-05-14T12:17:13.046Z,29.74
2023-05-14T12:19:41.617Z,29.72
2023-05-14T12:22:09.374Z,30.13
2023-05-14T12:24:38.791Z,29.12
2023-05-14T12:27:07.085Z,28.54
2023-05-14T12:29:37.413Z,28.52
2023-05-14T12:32:08.818Z,28.53
2023-05-14T12:34:37.499Z,28.37
2023-05-14T12:37:05.962Z,28.23
2023-05-14T12:39:35.263Z,28.19
2023-05-14T12:42:04.288Z,28.23
2023-05-14T12:44:30.951Z,28.37
2023-05-14T12:46:58.484Z,27.61
2023-05-14T12:49:26.114Z,28.05
2023-05-14T12:52:07.742Z,28.01
2023-05-14T12:54:42.749Z,27.59
2023-05-14T12:57:12.042Z,27.85
2023-05-14T12:59:39.282Z,27.38
2023-05-14T13:02:07.424Z,27.38
2023-05-14T13:04:35.418Z,27.38
2023-05-14T13:07:03.288Z,27.24
2023-05-14T13:09:31.233Z,27.43
2023-05-14T13:11:58.446Z,27.18
2023-05-14T13:14:28.055Z,27.05
2023-05-14T13:16:55.717Z,26.58
2023-05-14T13:19:23.348Z,27.04
2023-05-14T13:21:50.533Z,26.87
2023-05-14T13:24:18.551Z,27.28
2023-05-14T13:26:45.909Z,27.80
2023-05-14T13:29:13.430Z,27.51
2023-05-14T13:31:42.874Z,27.48
2023-05-14T13:34:10.506Z,27.59
2023-05-14T13:36:37.758Z,27.62
2023-05-14T13:39:05.398Z,27.29
2023-05-14T13:41:32.513Z,26.70
2023-05-14T13:43:59.909Z,26.75
2023-05-14T13:46:27.401Z,26.78
2023-05-14T13:48:56.348Z,27.01
2023-05-14T13:51:23.438Z,26.88
2023-05-14T13:53:51.097Z,27.15
2023-05-14T13:56:17.863Z,26.93
2023-05-14T13:58:44.866Z,26.72
2023-05-14T14:01:11.847Z,26.62
2023-05-14T14:03:39.071Z,26.93
2023-05-14T14:06:07.547Z,27.01
2023-05-14T14:08:34.392Z,25.97
2023-05-14T14:11:01.238Z,26.76
2023-05-14T14:13:28.377Z,27.00
2023-05-14T14:15:55.729Z,26.50
2023-05-14T14:18:23.515Z,27.05
2023-05-14T14:20:50.697Z,27.08
2023-05-14T14:23:20.702Z,26.69
2023-05-14T14:25:47.610Z,26.41
2023-05-14T14:28:15.256Z,26.43
2023-05-14T14:30:43.383Z,26.93
2023-05-14T14:33:10.763Z,26.21
2023-05-14T14:35:37.964Z,26.01
2023-05-14T14:38:05.438Z,26.10
2023-05-14T14:40:35.639Z,26.04
2023-05-14T14:43:02.840Z,26.43
2023-05-14T14:45:30.344Z,26.23
2023-05-14T14:48:28.368Z,25.84
2023-05-14T14:50:55.494Z,25.50
2023-05-14T14:53:23.890Z,25.49
2023-05-14T14:55:53.952Z,25.73
2023-05-14T14:58:21.609Z,25.99
2023-05-14T15:00:50.906Z,26.37
2023-05-14T15:03:18.486Z,26.16
2023-05-14T15:05:46.412Z,25.75
2023-05-14T15:08:13.953Z,26.21
2023-05-14T15:10:41.739Z,26.23
2023-05-14T15:13:10.813Z,25.95
2023-05-14T15:15:38.073Z,25.72
2023-05-14T15:18:05.842Z,25.36
2023-05-14T15:20:33.153Z,25.11
2023-05-14T15:23:00.283Z,25.38
2023-05-14T15:25:27.595Z,25.40
2023-05-14T15:27:55.641Z,25.45
2023-05-14T15:30:24.355Z,25.05
2023-05-14T15:32:51.582Z,25.06
2023-05-14T15:35:19.191Z,25.49
2023-05-14T15:37:46.609Z,25.22
2023-05-14T15:40:14.259Z,25.32
2023-05-14T15:42:43.778Z,24.92
2023-05-14T15:45:13.819Z,24.80
2023-05-14T15:47:42.586Z,25.47
2023-05-14T15:50:10.045Z,25.26
2023-05-14T15:52:37.686Z,24.98
2023-05-14T15:55:07.391Z,25.29
2023-05-14T15:57:34.954Z,24.99
2023-05-14T16:00:02.661Z,25.10
2023-05-14T16:02:30.352Z,25.66
2023-05-14T16:04:59.503Z,25.50
2023-05-14T16:07:26.992Z,24.99
2023-05-14T16:09:54.520Z,25.48
2023-05-14T16:12:21.922Z,25.71
2023-05-14T16:14:49.499Z,25.14
2023-05-14T16:17:16.931Z,24.65
2023-05-14T16:19:44.244Z,24.74
2023-05-14T16:22:12.878Z,24.41
2023-05-14T16:24:40.014Z,24.43
2023-05-14T16:27:07.384Z,23.81
2023-05-14T16:29:34.540Z,23.96
2023-05-14T16:32:01.860Z,24.25
2023-05-14T16:34:29.252Z,23.67
2023-05-14T16:36:56.530Z,23.57
2023-05-14T16:39:25.273Z,24.18
2023-05-14T16:41:52.017Z,24.22
2023-05-14T16:44:19.260Z,24.26
2023-05-14T16:46:46.420Z,24.04
2023-05-14T16:49:14.282Z,23.45
2023-05-14T16:51:41.703Z,23.22
2023-05-14T16:54:08.803Z,23.28
2023-05-14T16:56:38.491Z,23.50
2023-05-14T16:59:05.585Z,23.31
2023-05-14T17:01:33.577Z,22.83
2023-05-14T17:04:00.967Z,22.98
2023-05-14T17:06:27.830Z,22.93
2023-05-14T17:08:55.188Z,22.67
2023-05-14T17:11:22.775Z,22.61
2023-05-14T17:13:51.823Z,22.77
2023-05-14T17:16:19.152Z,22.90
2023-05-14T17:18:47.153Z,22.34
2023-05-14T17:21:15.224Z,22.62
2023-05-14T17:23:42.662Z,22.79
2023-05-14T17:26:10.088Z,22.23
2023-05-14T17:28:37.211Z,21.50
2023-05-14T17:31:06.364Z,21.20
2023-05-14T17:33:33.976Z,21.56
2023-05-14T17:36:01.979Z,21.65
2023-05-14T17:38:29.193Z,21.64
2023-05-14T17:40:56.610Z,21.56
2023-05-14T17:43:23.740Z,21.58
2023-05-14T17:45:54.211Z,21.53
2023-05-14T17:48:23.928Z,21.53
2023-05-14T17:50:51.789Z,21.80
2023-05-14T17:53:18.827Z,21.54
2023-05-14T17:55:46.674Z,21.68
2023-05-14T17:58:14.978Z,21.66
2023-05-14T18:00:42.691Z,21.52
2023-05-14T18:03:10.111Z,21.81
2023-05-14T18:05:39.090Z,21.51
2023-05-14T18:08:06.490Z,21.22
2023-05-14T18:10:33.983Z,20.94
2023-05-14T18:13:01.904Z,20.85
2023-05-14T18:15:29.801Z,20.32
2023-05-14T18:17:57.626Z,20.49
2023-05-14T18:20:25.023Z,20.53
2023-05-14T18:22:54.212Z,20.49
2023-05-14T18:25:21.798Z,20.64
2023-05-14T18:27:49.284Z,20.03
2023-05-14T18:30:16.544Z,20.44
2023-05-14T18:32:45.148Z,20.85
2023-05-14T18:35:13.584Z,20.73
2023-05-14T18:37:41.225Z,20.49
2023-05-14T18:40:12.575Z,20.25
2023-05-14T18:42:39.322Z,20.69
2023-05-14T18:45:07.434Z,20.79
2023-05-14T18:47:35.904Z,20.55
2023-05-14T18:50:03.366Z,20.73
2023-05-14T18:52:30.208Z,20.60
2023-05-14T18:54:57.831Z,20.81
2023-05-14T18:57:27.685Z,20.59
2023-05-14T18:59:54.937Z,20.63
2023-05-14T19:02:22.499Z,20.61
2023-05-14T19:04:52.816Z,20.37
2023-05-14T19:07:21.249Z,20.55
2023-05-14T19:09:49.245Z,20.40
2023-05-14T19:12:16.312Z,20.48
2023-05-14T19:14:45.128Z,20.10
2023-05-14T19:17:12.133Z,20.16
2023-05-14T19:19:39.362Z,19.92
2023-05-14T19:22:06.286Z,19.96
2023-05-14T19:24:33.230Z,20.18
2023-05-14T19:27:00.341Z,20.24
2023-05-14T19:29:27.556Z,20.37
2023-05-14T19:31:56.587Z,20.47
2023-05-14T19:34:24.004Z,20.48
2023-05-14T19:36:53.479Z,20.35
2023-05-14T19:39:20.980Z,20.34
2023-05-14T19:41:48.142Z,20.08
2023-05-14T19:44:15.455Z,20.23
2023-05-14T19:46:43.072Z,19.86
2023-05-14T19:49:11.768Z,20.00
2023-05-14T19:51:39.061Z,20.07
2023-05-14T19:54:06.940Z,20.00
2023-05-14T19:56:34.181Z,20.04
2023-05-14T19:59:01.659Z,20.16
2023-05-14T20:01:29.079Z,20.01
2023-05-14T20:03:56.291Z,20.35
2023-05-14T20:06:24.965Z,20.00
2023-05-14T20:08:52.584Z,19.64
2023-05-14T20:11:19.948Z,19.99
2023-05-14T20:13:47.140Z,20.21
2023-05-14T20:16:14.398Z,20.07
2023-05-14T20:18:41.871Z,19.99
2023-05-14T20:21:09.146Z,20.34
2023-05-14T20:23:39.102Z,20.59
2023-05-14T20:26:06.379Z,20.45
2023-05-14T20:28:33.602Z,20.14
2023-05-14T20:31:01.154Z,20.06
2023-05-14T20:33:28.328Z,19.92
2023-05-14T20:35:55.495Z,19.47
2023-05-14T20:38:23.028Z,19.32
2023-05-14T20:40:52.323Z,19.11
2023-05-14T20:43:19.701Z,19.17
2023-05-14T20:45:47.227Z,19.28
2023-05-14T20:48:14.546Z,18.96
2023-05-14T20:50:41.845Z,19.11
2023-05-14T20:53:09.312Z,19.35
2023-05-14T20:55:36.494Z,19.31
2023-05-14T20:58:04.601Z,19.73
2023-05-14T21:00:32.107Z,19.48
2023-05-14T21:02:58.823Z,19.27
2023-05-14T21:05:26.082Z,19.15
2023-05-14T21:07:53.152Z,18.93
2023-05-14T21:10:19.945Z,18.88
2023-05-14T21:12:47.232Z,18.83
2023-05-14T21:15:16.484Z,19.36
2023-05-14T21:17:43.862Z,18.94
2023-05-14T21:20:12.102Z,18.83
2023-05-14T21:22:39.713Z,19.04
2023-05-14T21:25:07.748Z,18.95
2023-05-14T21:27:34.895Z,18.82
2023-05-14T21:30:02.323Z,18.77
2023-05-14T21:32:31.384Z,18.75
2023-05-14T21:34:58.631Z,18.85
2023-05-14T21:37:26.562Z,18.68
2023-05-14T21:39:53.268Z,18.80
2023-05-14T21:42:20.616Z,18.63
2023-05-14T21:44:48.399Z,18.66
2023-05-14T21:47:15.835Z,18.78
2023-05-14T21:49:44.481Z,18.79
2023-05-14T21:52:11.977Z,18.76
2023-05-14T21:54:39.012Z,18.75
2023-05-14T21:57:06.028Z,18.80
2023-05-14T21:59:33.995Z,18.82
2023-05-14T22:04:32.713Z,19.04
2023-05-14T22:07:01.775Z,18.81
2023-05-14T22:09:29.519Z,18.67
2023-05-14T22:11:57.552Z,18.75
2023-05-14T22:14:25.179Z,18.63
2023-05-14T22:16:52.320Z,18.76
2023-05-14T22:19:19.613Z,18.56
2023-05-14T22:21:46.970Z,18.47
2023-05-14T22:24:16.011Z,18.48
2023-05-14T22:26:42.652Z,18.46
2023-05-14T22:29:10.065Z,18.27
2023-05-14T22:31:37.354Z,18.31
2023-05-14T22:34:04.715Z,18.29
2023-05-14T22:36:32.312Z,18.25
2023-05-14T22:38:59.622Z,18.37
2023-05-14T22:41:28.279Z,18.24
2023-05-14T22:43:55.551Z,18.04
2023-05-14T22:46:23.002Z,18.09
2023-05-14T22:48:50.448Z,18.10
2023-05-14T22:51:18.367Z,17.92
2023-05-14T22:53:45.646Z,17.90
2023-05-14T22:56:12.879Z,17.88
2023-05-14T22:58:42.069Z,18.02
2023-05-14T23:01:09.577Z,17.89
2023-05-14T23:03:36.681Z,17.79
2023-05-14T23:06:03.744Z,17.89
2023-05-14T23:08:30.975Z,17.92
2023-05-14T23:10:58.154Z,17.82
2023-05-14T23:13:25.723Z,17.84
2023-05-14T23:15:54.893Z,17.84
2023-05-14T23:18:22.300Z,17.96
2023-05-14T23:20:49.587Z,17.85
2023-05-14T23:23:16.682Z,17.60
2023-05-14T23:25:44.284Z,17.86
2023-05-14T23:28:11.873Z,17.79
2023-05-14T23:30:39.108Z,17.59
2023-05-14T23:33:07.773Z,17.52
2023-05-14T23:35:36.498Z,17.60
2023-05-14T23:38:05.388Z,17.48
2023-05-14T23:40:32.963Z,17.61
2023-05-14T23:43:00.327Z,17.83
2023-05-14T23:45:28.025Z,17.70
2023-05-14T23:47:57.403Z,17.50
2023-05-14T23:50:26.778Z,17.57
2023-05-14T23:52:55.197Z,17.58
2023-05-14T23:55:22.522Z,17.58
2023-05-14T23:57:50.113Z,17.47
